createdAt,value
2023-04-01T00:01:22.748Z,3.17
2023-04-01T00:03:49.633Z,4.03
2023-04-01T00:06:18.527Z,3.40
2023-04-01T00:08:45.924Z,4.38
2023-04-01T00:11:13.195Z,5.20
2023-04-01T00:13:40.070Z,4.00
2023-04-01T00:16:19.802Z,2.83
2023-04-01T00:18:49.471Z,4.65
2023-04-01T00:21:16.417Z,3.83
2023-04-01T00:23:43.317Z,6.15
2023-04-01T00:26:10.377Z,4.55
2023-04-01T00:28:37.249Z,4.53
2023-04-01T00:31:06.291Z,4.28
2023-04-01T00:36:08.651Z,6.22
2023-04-01T00:38:35.545Z,7.90
2023-04-01T00:41:02.404Z,7.38
2023-04-01T00:43:29.179Z,5.90
2023-04-01T00:45:55.909Z,8.55
2023-04-01T00:48:27.307Z,8.00
2023-04-01T00:50:58.082Z,8.18
2023-04-01T00:53:28.779Z,5.53
2023-04-01T00:56:00.835Z,6.95
2023-04-01T00:58:30.355Z,9.27
2023-04-01T01:01:00.016Z,6.47
2023-04-01T01:03:27.004Z,6.28
2023-04-01T01:06:16.316Z,7.18
2023-04-01T01:08:57.805Z,8.45
2023-04-01T01:11:42.597Z,8.98
2023-04-01T01:14:21.790Z,7.82
2023-04-01T01:16:55.306Z,8.25
2023-04-01T01:19:47.912Z,6.10
2023-04-01T01:22:37.076Z,9.55
2023-04-01T01:25:28.395Z,9.35
2023-04-01T01:28:01.400Z,7.97
2023-04-01T01:30:40.601Z,8.68
2023-04-01T01:33:21.996Z,8.07
2023-04-01T01:35:52.788Z,5.22
2023-04-01T01:38:23.355Z,5.22
2023-04-01T01:40:53.051Z,6.47
2023-04-01T01:43:23.404Z,4.07
2023-04-01T01:45:53.885Z,4.80
2023-04-01T01:48:20.935Z,6.05
2023-04-01T01:50:51.847Z,5.22
2023-04-01T01:53:18.653Z,6.22
2023-04-01T01:55:46.938Z,5.03
2023-04-01T01:58:18.616Z,5.63
2023-04-01T02:00:51.213Z,5.03
2023-04-01T02:03:19.928Z,5.07
2023-04-01T02:05:48.322Z,5.47
2023-04-01T02:08:20.965Z,5.78
2023-04-01T02:10:56.267Z,5.13
2023-04-01T02:13:27.573Z,5.47
2023-04-01T02:16:00.188Z,5.75
2023-04-01T02:18:28.838Z,5.78
2023-04-01T02:20:57.354Z,6.80
2023-04-01T02:23:26.176Z,5.75
2023-04-01T02:25:53.613Z,5.88
2023-04-01T02:28:21.211Z,4.93
2023-04-01T02:30:50.469Z,4.57
2023-04-01T02:33:18.218Z,5.13
2023-04-01T02:35:45.147Z,4.65
2023-04-01T02:38:11.863Z,3.50
2023-04-01T02:40:48.687Z,3.50
2023-04-01T02:43:16.520Z,4.43
2023-04-01T02:45:43.492Z,5.03
2023-04-01T02:48:10.665Z,4.35
2023-04-01T02:50:37.391Z,4.30
2023-04-01T02:53:04.170Z,5.68
2023-04-01T02:55:31.329Z,3.97
2023-04-01T02:57:59.767Z,4.97
2023-04-01T03:00:27.343Z,5.28
2023-04-01T03:02:54.639Z,5.90
2023-04-01T03:05:21.618Z,5.93
2023-04-01T03:07:48.362Z,4.07
2023-04-01T03:10:15.392Z,4.80
2023-04-01T03:12:45.279Z,3.85
2023-04-01T03:15:14.090Z,5.00
2023-04-01T03:17:41.404Z,5.38
2023-04-01T03:20:10.436Z,4.18
2023-04-01T03:25:05.186Z,4.50
2023-04-01T03:27:31.987Z,3.75
2023-04-01T03:29:58.733Z,5.80
2023-04-01T03:32:27.162Z,3.90
2023-04-01T03:34:54.048Z,5.20
2023-04-01T03:37:21.060Z,6.15
2023-04-01T03:39:47.858Z,5.88
2023-04-01T03:42:14.642Z,3.70
2023-04-01T03:44:41.472Z,5.47
2023-04-01T03:47:08.451Z,5.05
2023-04-01T03:49:37.959Z,5.47
2023-04-01T03:52:04.817Z,6.45
2023-04-01T03:54:31.569Z,6.15
2023-04-01T03:56:58.392Z,5.75
2023-04-01T03:59:25.161Z,6.80
2023-04-01T04:01:51.929Z,5.65
2023-04-01T04:04:18.795Z,7.78
2023-04-01T04:06:47.025Z,8.05
2023-04-01T04:09:13.785Z,6.10
2023-04-01T04:11:40.533Z,5.25
2023-04-01T04:14:07.315Z,7.03
2023-04-01T04:16:36.767Z,8.65
2023-04-01T04:19:03.943Z,8.90
2023-04-01T04:21:30.695Z,8.43
2023-04-01T04:23:59.423Z,5.63
2023-04-01T04:26:26.207Z,8.65
2023-04-01T04:28:54.279Z,4.78
2023-04-01T04:31:22.224Z,7.20
2023-04-01T04:33:49.058Z,7.00
2023-04-01T04:36:16.413Z,6.60
2023-04-01T04:38:43.226Z,8.02
2023-04-01T04:41:12.004Z,9.15
2023-04-01T04:43:39.223Z,8.25
2023-04-01T04:46:07.142Z,8.57
2023-04-01T04:48:35.495Z,5.55
2023-04-01T04:51:02.573Z,8.55
2023-04-01T04:53:29.417Z,7.75
2023-04-01T04:55:56.341Z,6.65
2023-04-01T04:58:24.483Z,6.63
2023-04-01T05:00:51.242Z,7.90
2023-04-01T05:03:18.228Z,6.95
2023-04-01T05:05:50.771Z,8.95
2023-04-01T05:08:18.040Z,8.77
2023-04-01T05:10:44.831Z,7.85
2023-04-01T05:13:11.607Z,9.00
2023-04-01T05:15:39.752Z,10.27
2023-04-01T05:18:06.558Z,8.77
2023-04-01T05:20:33.364Z,9.60
2023-04-01T05:23:01.066Z,8.93
2023-04-01T05:25:28.377Z,7.07
2023-04-01T05:27:55.158Z,8.63
2023-04-01T05:30:22.028Z,8.80
2023-04-01T05:32:50.131Z,9.60
2023-04-01T05:35:17.003Z,9.47
2023-04-01T05:37:43.839Z,8.15
2023-04-01T05:40:11.441Z,9.05
2023-04-01T05:42:38.552Z,8.05
2023-04-01T05:45:06.468Z,8.35
2023-04-01T05:47:33.578Z,7.57
2023-04-01T05:50:01.758Z,6.07
2023-04-01T05:52:28.667Z,6.68
2023-04-01T05:54:55.638Z,6.03
2023-04-01T05:57:22.439Z,5.43
2023-04-01T05:59:49.261Z,4.82
2023-04-01T06:02:19.047Z,6.55
2023-04-01T06:04:46.092Z,6.10
2023-04-01T06:07:16.215Z,6.10
2023-04-01T06:09:43.453Z,6.45
2023-04-01T06:12:38.616Z,7.95
2023-04-01T06:15:21.246Z,7.80
2023-04-01T06:18:08.817Z,8.52
2023-04-01T06:20:44.051Z,8.00
2023-04-01T06:23:25.933Z,9.65
2023-04-01T06:26:15.788Z,9.02
2023-04-01T06:29:07.221Z,8.95
2023-04-01T06:31:55.321Z,9.90
2023-04-01T06:34:35.527Z,10.43
2023-04-01T06:37:21.326Z,11.90
2023-04-01T06:40:20.454Z,11.35
2023-04-01T06:43:02.515Z,10.13
2023-04-01T06:45:38.053Z,11.93
2023-04-01T06:48:24.026Z,12.70
2023-04-01T06:50:57.464Z,12.52
2023-04-01T06:53:32.421Z,12.40
2023-04-01T06:56:04.239Z,12.23
2023-04-01T06:58:35.423Z,9.75
2023-04-01T07:01:04.838Z,10.35
2023-04-01T07:03:35.036Z,11.77
2023-04-01T07:06:04.883Z,12.50
2023-04-01T07:08:36.886Z,11.40
2023-04-01T07:11:07.180Z,11.02
2023-04-01T07:13:40.470Z,12.02
2023-04-01T07:16:13.474Z,10.30
2023-04-01T07:18:45.336Z,11.48
2023-04-01T07:21:26.334Z,10.88
2023-04-01T07:23:57.593Z,11.27
2023-04-01T07:26:26.007Z,12.52
2023-04-01T07:28:54.223Z,11.38
2023-04-01T07:31:30.408Z,10.80
2023-04-01T07:34:05.605Z,9.30
2023-04-01T07:36:39.464Z,9.38
2023-04-01T07:39:17.432Z,11.65
2023-04-01T07:41:52.611Z,11.33
2023-04-01T07:44:28.546Z,11.45
2023-04-01T07:47:08.112Z,10.85
2023-04-01T07:49:46.055Z,9.35
2023-04-01T07:52:17.825Z,9.67
2023-04-01T07:54:50.705Z,9.55
2023-04-01T07:57:23.282Z,10.70
2023-04-01T08:00:01.080Z,8.60
2023-04-01T08:02:40.460Z,8.23
2023-04-01T08:05:19.801Z,8.88
2023-04-01T08:07:54.344Z,9.80
2023-04-01T08:10:26.542Z,10.35
2023-04-01T08:13:06.482Z,10.85
2023-04-01T08:15:39.612Z,10.52
2023-04-01T08:18:15.579Z,9.68
2023-04-01T08:20:47.398Z,9.95
2023-04-01T08:23:17.950Z,9.60
2023-04-01T08:25:52.018Z,7.70
2023-04-01T08:28:25.146Z,9.50
2023-04-01T08:30:56.020Z,10.63
2023-04-01T08:33:26.719Z,8.40
2023-04-01T08:35:58.702Z,9.27
2023-04-01T08:38:32.027Z,6.90
2023-04-01T08:41:01.113Z,8.63
2023-04-01T08:46:41.789Z,8.43
2023-04-01T08:49:21.103Z,8.70
2023-04-01T08:52:04.149Z,9.38
2023-04-01T08:54:45.858Z,8.50
2023-04-01T08:57:20.833Z,8.70
2023-04-01T09:00:09.116Z,8.60
2023-04-01T09:03:03.959Z,7.65
2023-04-01T09:05:46.773Z,7.25
2023-04-01T09:08:28.841Z,8.70
2023-04-01T09:11:09.287Z,7.65
2023-04-01T09:13:59.078Z,8.60
2023-04-01T09:16:43.896Z,7.50
2023-04-01T09:19:23.289Z,8.95
2023-04-01T09:22:26.050Z,9.13
2023-04-01T09:25:16.280Z,9.50
2023-04-01T09:27:47.667Z,8.35
2023-04-01T09:30:44.249Z,8.88
2023-04-01T09:33:47.259Z,10.57
2023-04-01T09:36:25.212Z,9.05
2023-04-01T09:38:57.964Z,10.43
2023-04-01T09:41:31.287Z,10.23
2023-04-01T09:44:03.646Z,11.18
2023-04-01T09:46:42.422Z,10.10
2023-04-01T09:52:05.386Z,9.48
2023-04-01T09:54:47.031Z,9.20
2023-04-01T09:57:44.215Z,10.43
2023-04-01T10:00:45.825Z,10.75
2023-04-01T10:03:47.416Z,8.10
2023-04-01T10:06:45.213Z,11.70
2023-04-01T10:09:45.408Z,11.03
2023-04-01T10:12:45.218Z,11.95
2023-04-01T10:15:30.262Z,11.43
2023-04-01T10:18:29.508Z,12.50
2023-04-01T10:21:15.414Z,12.75
2023-04-01T10:24:15.288Z,13.98
2023-04-01T10:27:11.044Z,11.65
2023-04-01T10:30:10.450Z,11.25
2023-04-01T10:33:04.887Z,12.35
2023-04-01T10:36:03.420Z,11.55
2023-04-01T10:38:57.478Z,11.60
2023-04-01T10:42:06.211Z,10.05
2023-04-01T10:47:46.358Z,9.48
2023-04-01T10:53:16.445Z,9.32
2023-04-01T10:56:29.498Z,9.80
2023-04-01T10:59:27.647Z,9.60
2023-04-01T11:02:37.036Z,7.32
2023-04-01T11:05:41.684Z,10.02
2023-04-01T11:08:49.636Z,8.05
2023-04-01T11:12:01.841Z,9.55
2023-04-01T11:14:49.412Z,9.60
2023-04-01T11:17:43.166Z,8.77
2023-04-01T11:20:50.514Z,9.13
2023-04-01T11:23:32.409Z,7.88
2023-04-01T11:26:08.364Z,7.43
2023-04-01T11:29:15.946Z,7.93
2023-04-01T11:31:55.568Z,7.22
2023-04-01T11:34:40.911Z,7.13
2023-04-01T11:37:21.628Z,7.30
2023-04-01T11:40:00.370Z,6.95
2023-04-01T11:45:13.004Z,7.07
2023-04-01T11:47:59.642Z,7.13
2023-04-01T11:50:39.907Z,4.07
2023-04-01T11:53:22.036Z,3.67
2023-04-01T11:56:00.846Z,3.75
2023-04-01T12:01:25.925Z,5.10
2023-04-01T12:04:12.881Z,4.38
2023-04-01T12:06:50.167Z,3.47
2023-04-01T12:09:26.261Z,4.20
2023-04-01T12:12:07.527Z,3.20
2023-04-01T12:14:41.365Z,3.70
2023-04-01T12:17:16.976Z,3.63
2023-04-01T12:19:49.563Z,4.07
2023-04-01T12:22:33.864Z,3.65
2023-04-01T12:25:17.962Z,3.90
2023-04-01T12:27:52.090Z,4.20
2023-04-01T12:30:47.961Z,2.50
2023-04-01T12:33:28.728Z,2.03
2023-04-01T12:36:06.082Z,1.88
2023-04-01T12:38:43.789Z,2.20
2023-04-01T12:41:16.769Z,2.05
2023-04-01T12:44:38.994Z,2.72
2023-04-01T12:47:22.577Z,2.60
2023-04-01T12:50:26.930Z,3.05
2023-04-01T12:53:09.712Z,2.70
2023-04-01T12:55:41.460Z,2.60
2023-04-01T12:58:45.474Z,2.58
2023-04-01T13:01:26.926Z,3.30
2023-04-01T13:04:26.518Z,3.33
2023-04-01T13:07:05.550Z,3.10
2023-04-01T13:09:41.167Z,3.35
2023-04-01T13:12:30.120Z,3.25
2023-04-01T13:15:24.157Z,2.88
2023-04-01T13:17:59.521Z,2.90
2023-04-01T13:20:36.698Z,2.03
2023-04-01T13:23:15.677Z,1.10
2023-04-01T13:25:51.085Z,0.93
2023-04-01T13:28:24.701Z,2.05
2023-04-01T13:30:59.237Z,0.90
2023-04-01T13:33:32.441Z,1.30
2023-04-01T13:36:10.308Z,1.40
2023-04-01T13:38:51.596Z,1.52
2023-04-01T13:41:27.788Z,1.30
2023-04-01T13:44:03.479Z,1.80
2023-04-01T13:46:45.674Z,1.63
2023-04-01T13:49:31.260Z,2.00
2023-04-01T13:52:16.865Z,1.75
2023-04-01T13:55:18.537Z,2.20
2023-04-01T13:57:59.726Z,2.20
2023-04-01T14:00:41.288Z,2.42
2023-04-01T14:03:26.884Z,3.15
2023-04-01T14:06:03.055Z,3.53
2023-04-01T14:08:44.788Z,3.72
2023-04-01T14:11:19.912Z,3.97
2023-04-01T14:14:00.102Z,3.72
2023-04-01T14:17:04.346Z,4.13
2023-04-01T14:20:04.788Z,4.43
2023-04-01T14:22:39.106Z,4.45
2023-04-01T14:25:37.695Z,4.60
2023-04-01T14:28:17.169Z,4.55
2023-04-01T14:30:56.739Z,4.40
2023-04-01T14:33:33.299Z,5.00
2023-04-01T14:36:21.409Z,3.92
2023-04-01T14:38:57.403Z,4.15
2023-04-01T14:41:39.237Z,4.15
2023-04-01T14:44:53.391Z,3.50
2023-04-01T14:47:34.403Z,2.25
2023-04-01T14:50:07.353Z,2.33
2023-04-01T14:52:36.838Z,2.88
2023-04-01T14:55:20.510Z,2.85
2023-04-01T14:58:00.113Z,3.03
2023-04-01T15:00:33.242Z,2.95
2023-04-01T15:03:09.070Z,2.97
2023-04-01T15:05:47.805Z,2.92
2023-04-01T15:08:19.578Z,2.95
2023-04-01T15:11:11.244Z,3.22
2023-04-01T15:14:09.969Z,3.03
2023-04-01T15:19:18.353Z,2.88
2023-04-01T15:22:08.354Z,2.15
2023-04-01T15:24:46.973Z,2.53
2023-04-01T15:27:33.422Z,2.60
2023-04-01T15:30:32.459Z,3.05
2023-04-01T15:33:18.462Z,2.70
2023-04-01T15:35:50.914Z,2.63
2023-04-01T15:38:27.953Z,3.03
2023-04-01T15:41:01.903Z,5.40
2023-04-01T15:43:37.830Z,3.08
2023-04-01T15:46:18.804Z,3.28
2023-04-01T15:48:59.389Z,5.13
2023-04-01T15:51:44.859Z,4.53
2023-04-01T15:54:33.449Z,9.70
2023-04-01T15:57:16.156Z,9.40
2023-04-01T16:00:08.101Z,34.97
2023-04-01T16:02:41.472Z,9.55
2023-04-01T16:05:27.865Z,8.30
2023-04-01T16:08:04.922Z,8.02
2023-04-01T16:10:52.989Z,6.65
2023-04-01T16:13:29.092Z,7.07
2023-04-01T16:16:06.213Z,8.75
2023-04-01T16:18:49.997Z,10.90
2023-04-01T16:21:34.832Z,6.25
2023-04-01T16:24:11.086Z,5.82
2023-04-01T16:26:44.089Z,6.15
2023-04-01T16:29:18.754Z,5.15
2023-04-01T16:31:52.413Z,5.70
2023-04-01T16:34:25.756Z,4.25
2023-04-01T16:36:59.306Z,19.27
2023-04-01T16:39:34.550Z,5.00
2023-04-01T16:42:21.257Z,8.65
2023-04-01T16:44:56.323Z,7.25
2023-04-01T16:47:30.663Z,5.85
2023-04-01T16:50:01.671Z,7.15
2023-04-01T16:52:44.430Z,6.55
2023-04-01T16:55:17.804Z,6.05
2023-04-01T16:57:50.478Z,6.53
2023-04-01T17:00:26.214Z,4.75
2023-04-01T17:03:04.907Z,11.73
2023-04-01T17:05:45.530Z,5.25
2023-04-01T17:08:27.094Z,9.85
2023-04-01T17:10:58.103Z,5.85
2023-04-01T17:13:41.330Z,5.85
2023-04-01T17:16:28.815Z,6.10
2023-04-01T17:19:06.407Z,7.15
2023-04-01T17:21:48.282Z,5.00
2023-04-01T17:24:32.874Z,6.18
2023-04-01T17:27:13.774Z,5.30
2023-04-01T17:30:03.080Z,3.28
2023-04-01T17:32:42.755Z,4.78
2023-04-01T17:35:16.317Z,4.50
2023-04-01T17:37:56.873Z,4.22
2023-04-01T17:40:46.428Z,5.10
2023-04-01T17:43:23.208Z,4.30
2023-04-01T17:45:55.164Z,4.20
2023-04-01T17:48:31.643Z,4.28
2023-04-01T17:51:21.393Z,4.18
2023-04-01T17:53:56.149Z,4.20
2023-04-01T17:56:39.249Z,4.70
2023-04-01T17:59:18.432Z,3.67
2023-04-01T18:01:52.738Z,4.70
2023-04-01T18:05:01.989Z,4.80
2023-04-01T18:07:54.274Z,4.13
2023-04-01T18:10:27.813Z,4.60
2023-04-01T18:13:16.159Z,5.30
2023-04-01T18:15:51.052Z,3.87
2023-04-01T18:18:41.981Z,4.35
2023-04-01T18:21:15.840Z,4.15
2023-04-01T18:23:55.653Z,4.85
2023-04-01T18:26:32.377Z,4.80
2023-04-01T18:29:04.998Z,4.85
2023-04-01T18:31:38.473Z,5.43
2023-04-01T18:34:13.862Z,5.65
2023-04-01T18:36:45.771Z,4.82
2023-04-01T18:39:16.802Z,5.40
2023-04-01T18:41:53.908Z,4.30
2023-04-01T18:44:31.133Z,4.38
2023-04-01T18:47:14.575Z,4.38
2023-04-01T18:49:47.378Z,4.60
2023-04-01T18:52:20.885Z,4.40
2023-04-01T18:55:13.316Z,5.03
2023-04-01T18:57:47.126Z,10.05
2023-04-01T19:00:22.312Z,6.57
2023-04-01T19:02:56.337Z,4.78
2023-04-01T19:05:31.784Z,5.25
2023-04-01T19:08:20.350Z,5.38
2023-04-01T19:10:53.130Z,4.25
2023-04-01T19:13:31.656Z,6.22
2023-04-01T19:16:08.802Z,5.63
2023-04-01T19:18:51.134Z,5.78
2023-04-01T19:21:20.554Z,5.43
2023-04-01T19:24:22.210Z,5.85
2023-04-01T19:26:57.808Z,6.38
2023-04-01T19:29:46.651Z,6.22
2023-04-01T19:34:55.598Z,6.07
2023-04-01T19:37:32.718Z,6.03
2023-04-01T19:40:16.848Z,5.45
2023-04-01T19:42:52.558Z,5.65
2023-04-01T19:45:34.053Z,3.95
2023-04-01T19:48:13.279Z,5.38
2023-04-01T19:50:47.261Z,5.63
2023-04-01T19:53:25.337Z,8.55
2023-04-01T19:56:00.056Z,8.10
2023-04-01T19:58:34.573Z,7.65
2023-04-01T20:01:04.156Z,8.35
2023-04-01T20:03:40.392Z,6.38
2023-04-01T20:06:16.861Z,6.57
2023-04-01T20:08:51.716Z,5.32
2023-04-01T20:11:41.472Z,4.47
2023-04-01T20:14:16.522Z,5.97
2023-04-01T20:17:10.291Z,5.47
2023-04-01T20:19:42.183Z,5.55
2023-04-01T20:22:53.209Z,5.95
2023-04-01T20:25:24.143Z,4.57
2023-04-01T20:27:55.762Z,5.38
2023-04-01T20:30:47.431Z,4.18
2023-04-01T20:33:35.672Z,4.35
2023-04-01T20:36:15.626Z,4.10
2023-04-01T20:39:09.157Z,4.95
2023-04-01T20:41:46.427Z,4.68
2023-04-01T20:44:14.361Z,6.10
2023-04-01T20:46:48.944Z,5.85
2023-04-01T20:49:49.004Z,8.13
2023-04-01T20:52:27.665Z,7.10
2023-04-01T20:55:17.795Z,5.68
2023-04-01T20:57:50.338Z,6.68
2023-04-01T21:00:29.440Z,6.65
2023-04-01T21:03:11.720Z,7.93
2023-04-01T21:06:04.323Z,6.40
2023-04-01T21:08:45.758Z,6.53
2023-04-01T21:11:21.596Z,6.85
2023-04-01T21:14:02.198Z,7.32
2023-04-01T21:16:42.179Z,7.72
2023-04-01T21:19:26.104Z,7.97
2023-04-01T21:22:15.124Z,8.75
2023-04-01T21:24:56.917Z,8.50
2023-04-01T21:27:36.003Z,8.48
2023-04-01T21:30:13.347Z,9.35
2023-04-01T21:32:55.245Z,9.13
2023-04-01T21:35:32.127Z,8.93
2023-04-01T21:38:15.188Z,9.10
2023-04-01T21:41:15.208Z,8.68
2023-04-01T21:44:02.705Z,8.07
2023-04-01T21:47:05.405Z,9.15
2023-04-01T21:49:52.167Z,9.07
2023-04-01T21:52:49.469Z,8.00
2023-04-01T21:55:53.151Z,7.55
2023-04-01T21:59:11.107Z,8.10
2023-04-01T22:02:04.840Z,9.85
2023-04-01T22:04:50.656Z,7.20
2023-04-01T22:07:20.070Z,8.00
2023-04-01T22:09:58.292Z,7.65
2023-04-01T22:12:35.362Z,7.95
2023-04-01T22:15:12.476Z,9.07
2023-04-01T22:17:49.393Z,6.93
2023-04-01T22:20:27.846Z,7.00
2023-04-01T22:23:06.176Z,7.28
2023-04-01T22:25:40.445Z,6.18
2023-04-01T22:28:14.483Z,5.63
2023-04-01T22:30:46.896Z,7.00
2023-04-01T22:33:29.261Z,6.25
2023-04-01T22:36:03.083Z,6.07
2023-04-01T22:38:45.953Z,7.70
2023-04-01T22:41:19.624Z,6.53
2023-04-01T22:43:47.238Z,5.90
2023-04-01T22:46:50.224Z,6.95
2023-04-01T22:49:23.049Z,5.95
2023-04-01T22:51:57.464Z,6.30
2023-04-01T22:54:28.679Z,4.82
2023-04-01T22:56:58.476Z,6.45
2023-04-01T22:59:32.463Z,6.07
2023-04-01T23:02:04.321Z,5.38
2023-04-01T23:04:35.888Z,5.72
2023-04-01T23:07:22.746Z,6.97
2023-04-01T23:09:51.466Z,6.15
2023-04-01T23:12:21.463Z,6.63
2023-04-01T23:14:51.687Z,7.50
2023-04-01T23:17:40.656Z,7.55
2023-04-01T23:22:55.523Z,6.97
2023-04-01T23:25:34.329Z,8.57
2023-04-01T23:30:50.863Z,7.80
2023-04-01T23:33:23.784Z,8.95
2023-04-01T23:35:54.264Z,9.10
2023-04-01T23:38:23.318Z,8.25
2023-04-01T23:43:24.166Z,9.52
2023-04-01T23:45:51.143Z,9.02
2023-04-01T23:48:20.412Z,9.65
2023-04-01T23:50:47.587Z,9.38
2023-04-01T23:53:19.719Z,10.02
2023-04-01T23:55:47.484Z,11.40
2023-04-01T23:58:24.500Z,10.77
